Time;durP1;ratioP1;P1;durP2;ratioP2;P2;SDS_P1;SDS_P2;PMS_P1;PMS_P2;Temp;Humidity;BMP_temperature;BMP_pressure;BME280_temperature;BME280_humidity;BME280_pressure;Samples;Min_cycle;Max_cycle;Signal;HPM_P1;HPM_P2
2022/10/06 00:01:12;;;;;;;3.20;2.67;;;23.50;47.10;;;;;;4990500;28;20046;-63
2022/10/06 00:03:41;;;;;;;3.22;2.72;;;23.50;47.10;;;;;;4988779;28;20050;-63
2022/10/06 00:06:14;;;;;;;5.18;2.90;;;23.50;47.10;;;;;;4989521;28;20491;-63
2022/10/06 00:08:42;;;;;;;5.68;3.00;;;23.50;47.20;;;;;;4990355;28;20502;-63
2022/10/06 00:11:11;;;;;;;3.58;2.67;;;23.50;47.10;;;;;;4990182;28;20053;-62
2022/10/06 00:13:38;;;;;;;4.22;2.78;;;23.50;47.10;;;;;;4989177;28;20046;-63
2022/10/06 00:16:16;;;;;;;3.60;2.78;;;23.50;47.10;;;;;;4985339;28;20343;-63
2022/10/06 00:18:43;;;;;;;4.53;2.70;;;23.50;47.20;;;;;;4988990;28;20137;-62
2022/10/06 00:21:10;;;;;;;3.00;2.70;;;23.50;47.20;;;;;;4990164;28;20050;-62
2022/10/06 00:23:37;;;;;;;3.38;2.80;;;23.50;47.20;;;;;;4989499;28;20054;-63
2022/10/06 00:26:05;;;;;;;3.50;2.60;;;23.50;47.20;;;;;;4989632;28;20561;-63
2022/10/06 00:28:32;;;;;;;3.30;2.63;;;23.40;47.20;;;;;;4990099;28;20494;-62
2022/10/06 00:31:01;;;;;;;3.28;2.60;;;23.40;47.20;;;;;;4990033;28;20053;-63
2022/10/06 00:33:28;;;;;;;3.88;2.80;;;23.40;47.20;;;;;;4990124;28;20077;-63
2022/10/06 00:35:59;;;;;;;4.15;2.78;;;23.40;47.20;;;;;;4989437;28;20042;-62
2022/10/06 00:38:27;;;;;;;3.40;2.67;;;23.50;47.30;;;;;;4989904;28;20237;-63
2022/10/06 00:40:55;;;;;;;2.67;2.47;;;23.40;47.30;;;;;;4989405;28;20057;-63
2022/10/06 00:43:41;;;;;;;3.38;2.78;;;23.50;47.30;;;;;;4989800;28;20497;-62
2022/10/06 00:46:13;;;;;;;3.97;2.97;;;23.40;47.30;;;;;;4987204;28;20049;-63
2022/10/06 00:48:41;;;;;;;6.53;2.67;;;23.40;47.30;;;;;;4985198;28;20455;-63
2022/10/06 00:51:08;;;;;;;3.55;2.45;;;23.40;47.20;;;;;;4989682;28;20054;-63
2022/10/06 00:53:36;;;;;;;3.45;2.38;;;23.40;47.20;;;;;;4989299;28;20507;-63
2022/10/06 00:56:03;;;;;;;3.25;2.50;;;23.40;47.20;;;;;;4989372;28;20483;-63
2022/10/06 00:58:31;;;;;;;3.80;2.65;;;23.40;47.10;;;;;;4989495;28;20054;-62
2022/10/06 01:00:58;;;;;;;3.53;2.17;;;23.40;47.10;;;;;;4989597;28;20503;-62
2022/10/06 01:03:41;;;;;;;3.60;2.70;;;23.40;47.10;;;;;;4989359;28;20466;-62
2022/10/06 01:06:08;;;;;;;3.08;2.25;;;23.40;47.10;;;;;;4987813;28;20061;-63
2022/10/06 01:08:36;;;;;;;3.53;2.80;;;23.40;47.10;;;;;;4989537;28;20076;-63
2022/10/06 01:11:03;;;;;;;2.60;2.40;;;23.40;47.10;;;;;;4988720;28;20506;-62
2022/10/06 01:13:31;;;;;;;3.03;2.58;;;23.40;47.10;;;;;;4988943;28;20057;-62
2022/10/06 01:16:06;;;;;;;3.38;3.00;;;23.40;47.10;;;;;;4989286;28;20046;-62
2022/10/06 01:18:36;;;;;;;2.85;2.28;;;23.50;47.20;;;;;;4988713;28;20141;-63
2022/10/06 01:21:15;;;;;;;4.78;2.25;;;23.40;47.10;;;;;;4995244;28;20387;-62
2022/10/06 01:23:43;;;;;;;2.92;2.50;;;23.40;47.10;;;;;;5008214;28;20058;-63
2022/10/06 01:26:12;;;;;;;2.35;2.03;;;23.40;47.10;;;;;;5008526;28;20049;-63
2022/10/06 01:28:39;;;;;;;3.20;2.75;;;23.40;47.10;;;;;;5006828;28;20042;-62
2022/10/06 01:31:08;;;;;;;3.40;2.38;;;23.40;47.20;;;;;;5008680;28;20041;-62
2022/10/06 01:33:35;;;;;;;4.50;2.92;;;23.40;47.10;;;;;;5008811;28;20391;-62
2022/10/06 01:36:03;;;;;;;8.07;2.63;;;23.40;47.10;;;;;;5008323;28;20050;-63
2022/10/06 01:38:30;;;;;;;3.55;2.33;;;23.40;47.20;;;;;;5007093;28;20402;-62
2022/10/06 01:40:58;;;;;;;3.22;2.17;;;23.40;47.20;;;;;;5007839;28;20045;-62
2022/10/06 01:43:25;;;;;;;2.40;2.20;;;23.40;47.20;;;;;;5008269;28;20643;-63
2022/10/06 01:45:54;;;;;;;2.30;2.10;;;23.40;47.20;;;;;;5007805;28;20050;-62
2022/10/06 01:48:22;;;;;;;2.30;2.10;;;23.40;47.20;;;;;;5006198;28;20129;-62
2022/10/06 01:50:49;;;;;;;3.92;2.80;;;23.30;47.10;;;;;;5006382;28;20057;-62
2022/10/06 01:53:17;;;;;;;3.47;2.30;;;23.30;47.10;;;;;;5004978;28;20050;-62
2022/10/06 01:55:45;;;;;;;2.95;2.35;;;23.30;47.10;;;;;;5007305;28;20466;-62
2022/10/06 01:58:12;;;;;;;3.13;2.38;;;23.30;47.20;;;;;;5007931;28;20042;-62
2022/10/06 02:00:39;;;;;;;2.35;1.98;;;23.30;47.20;;;;;;5007940;28;20050;-62
2022/10/06 02:03:07;;;;;;;2.63;1.90;;;23.30;47.20;;;;;;5008256;28;20058;-62
2022/10/06 02:05:34;;;;;;;2.75;2.20;;;23.30;47.20;;;;;;5007794;28;20045;-62
2022/10/06 02:08:01;;;;;;;2.45;2.13;;;23.30;47.20;;;;;;5008344;28;20053;-62
2022/10/06 02:10:28;;;;;;;3.42;2.50;;;23.30;47.20;;;;;;5005908;28;20050;-62
2022/10/06 02:12:56;;;;;;;2.40;2.00;;;23.30;47.20;;;;;;5007987;28;20053;-62
2022/10/06 02:15:23;;;;;;;4.13;2.45;;;23.30;47.20;;;;;;5008057;28;20042;-62
2022/10/06 02:17:50;;;;;;;1.92;1.83;;;23.30;47.20;;;;;;5008137;28;20222;-62
2022/10/06 02:20:17;;;;;;;2.30;2.10;;;23.30;47.20;;;;;;5009664;28;20057;-62
2022/10/06 02:22:44;;;;;;;2.08;1.92;;;23.30;47.20;;;;;;5009416;28;20042;-62
2022/10/06 02:25:11;;;;;;;2.25;2.03;;;23.30;47.20;;;;;;5008717;28;20046;-62
2022/10/06 02:27:38;;;;;;;2.78;2.17;;;23.30;47.30;;;;;;5011121;28;20053;-62
2022/10/06 02:30:07;;;;;;;2.10;1.90;;;23.30;47.30;;;;;;5011331;28;20046;-62
2022/10/06 02:32:36;;;;;;;3.03;2.45;;;23.30;47.30;;;;;;5011120;28;20046;-62
2022/10/06 02:35:05;;;;;;;3.10;2.22;;;23.30;47.30;;;;;;5010962;28;20069;-62
2022/10/06 02:37:32;;;;;;;2.08;1.88;;;23.20;47.20;;;;;;5010474;28;20490;-62
2022/10/06 02:40:00;;;;;;;2.25;2.00;;;23.30;47.30;;;;;;5011204;28;20053;-62
2022/10/06 02:42:27;;;;;;;2.90;2.30;;;23.30;47.30;;;;;;5010184;28;20050;-62
2022/10/06 02:44:54;;;;;;;3.42;2.20;;;23.30;47.30;;;;;;5011496;28;20056;-62
2022/10/06 02:47:21;;;;;;;2.30;1.90;;;23.30;47.30;;;;;;5010482;28;20453;-62
2022/10/06 02:49:49;;;;;;;1.90;1.70;;;23.30;47.30;;;;;;5011684;28;20654;-62
2022/10/06 02:52:16;;;;;;;3.40;2.10;;;23.30;47.30;;;;;;5009877;28;20050;-62
2022/10/06 02:54:45;;;;;;;2.10;1.90;;;23.30;47.30;;;;;;5007818;28;20045;-62
2022/10/06 02:57:14;;;;;;;2.90;2.10;;;23.30;47.30;;;;;;5010449;28;20054;-62
2022/10/06 02:59:41;;;;;;;1.88;1.77;;;23.30;47.30;;;;;;5011409;28;20057;-62
2022/10/06 03:02:09;;;;;;;2.17;1.98;;;23.30;47.20;;;;;;5011256;28;20505;-62
2022/10/06 03:04:36;;;;;;;2.20;2.00;;;23.30;47.20;;;;;;5011509;28;20046;-62
2022/10/06 03:07:03;;;;;;;2.30;2.10;;;23.30;47.20;;;;;;5009754;28;20057;-62
2022/10/06 03:09:30;;;;;;;2.65;2.22;;;23.30;47.20;;;;;;5010805;28;20049;-62
2022/10/06 03:11:57;;;;;;;4.10;2.40;;;23.30;47.10;;;;;;5010545;28;20053;-62
2022/10/06 03:14:24;;;;;;;3.63;1.95;;;23.30;47.10;;;;;;5010667;28;20061;-62
2022/10/06 03:16:53;;;;;;;2.03;1.92;;;23.30;47.10;;;;;;5010848;28;20045;-62
2022/10/06 03:19:20;;;;;;;1.83;1.73;;;23.20;47.10;;;;;;5010530;28;20050;-62
2022/10/06 03:21:48;;;;;;;2.58;1.80;;;23.20;47.10;;;;;;5010345;28;20057;-62
2022/10/06 03:24:15;;;;;;;2.40;1.73;;;23.30;47.10;;;;;;5010396;28;20084;-62
2022/10/06 03:26:45;;;;;;;2.10;1.90;;;23.30;47.10;;;;;;5007889;28;20479;-62
2022/10/06 03:29:14;;;;;;;3.28;2.47;;;23.30;47.10;;;;;;5006420;28;20054;-65
2022/10/06 03:31:42;;;;;;;2.03;1.77;;;23.30;47.10;;;;;;5008933;28;20057;-65
2022/10/06 03:34:09;;;;;;;2.08;1.88;;;23.30;47.20;;;;;;5010503;28;20526;-65
2022/10/06 03:36:36;;;;;;;1.88;1.77;;;23.20;47.10;;;;;;5006549;28;20495;-65
2022/10/06 03:39:05;;;;;;;2.97;2.22;;;23.20;47.10;;;;;;5007678;28;20046;-66
2022/10/06 03:41:34;;;;;;;2.10;1.90;;;23.20;47.10;;;;;;5010780;28;20049;-64
2022/10/06 03:44:02;;;;;;;2.97;1.70;;;23.20;47.10;;;;;;5009814;28;20080;-62
2022/10/06 03:46:31;;;;;;;2.70;2.10;;;23.20;47.10;;;;;;5010863;28;20042;-62
2022/10/06 03:49:00;;;;;;;4.30;1.80;;;23.20;47.10;;;;;;5009686;28;20487;-62
2022/10/06 03:51:34;;;;;;;2.58;2.15;;;23.20;47.10;;;;;;5008473;28;20513;-62
2022/10/06 03:54:02;;;;;;;1.92;1.83;;;23.20;47.10;;;;;;5007347;28;20232;-62
2022/10/06 03:56:34;;;;;;;1.52;1.42;;;23.20;47.10;;;;;;5009295;28;20361;-62
2022/10/06 03:59:04;;;;;;;3.65;1.80;;;23.20;47.10;;;;;;5001624;28;20490;-62
2022/10/06 04:01:34;;;;;;;2.08;1.85;;;23.20;47.20;;;;;;4994948;28;20050;-62
2022/10/06 04:04:03;;;;;;;2.45;2.22;;;23.20;47.20;;;;;;5016926;28;20129;-62
2022/10/06 04:06:32;;;;;;;2.72;1.70;;;23.10;47.10;;;;;;5025746;28;20049;-62
2022/10/06 04:08:59;;;;;;;1.83;1.73;;;23.20;47.20;;;;;;5009561;28;20050;-62
2022/10/06 04:11:32;;;;;;;1.80;1.70;;;23.10;47.10;;;;;;5008947;28;20057;-62
2022/10/06 04:14:03;;;;;;;2.17;1.98;;;23.10;47.10;;;;;;5008348;28;20073;-62
2022/10/06 04:16:33;;;;;;;2.13;1.90;;;23.10;47.10;;;;;;5008237;28;20521;-62
2022/10/06 04:19:03;;;;;;;1.90;1.40;;;23.10;47.10;;;;;;5007800;28;20056;-62
2022/10/06 04:21:32;;;;;;;3.53;2.10;;;23.20;47.20;;;;;;5009244;28;20048;-62
2022/10/06 04:23:59;;;;;;;1.90;1.75;;;23.20;47.20;;;;;;5009420;28;20060;-62
2022/10/06 04:26:32;;;;;;;2.08;1.80;;;23.10;47.10;;;;;;5008978;28;20046;-62
2022/10/06 04:28:59;;;;;;;1.92;1.67;;;23.10;47.10;;;;;;5009251;28;20057;-62
2022/10/06 04:31:29;;;;;;;2.22;1.92;;;23.20;47.10;;;;;;5002730;28;20050;-62
2022/10/06 04:33:58;;;;;;;2.17;1.67;;;23.10;47.10;;;;;;5007727;28;20465;-62
2022/10/06 04:36:30;;;;;;;2.70;1.80;;;23.20;47.10;;;;;;5008166;28;20045;-62
2022/10/06 04:39:00;;;;;;;2.10;1.90;;;23.10;46.90;;;;;;5013079;28;20046;-62
2022/10/06 04:41:30;;;;;;;3.03;2.30;;;23.10;46.70;;;;;;5014699;28;20049;-62
2022/10/06 04:43:58;;;;;;;3.08;1.88;;;23.10;46.70;;;;;;5008262;28;20517;-62
2022/10/06 04:46:26;;;;;;;2.50;2.30;;;23.10;46.60;;;;;;5008368;28;20064;-62
2022/10/06 04:49:09;;;;;;;4.25;2.10;;;23.10;46.60;;;;;;5005629;28;20125;-62
2022/10/06 04:51:44;;;;;;;2.30;2.10;;;23.10;46.50;;;;;;5008270;28;20072;-62
2022/10/06 04:54:11;;;;;;;3.13;2.30;;;23.10;46.40;;;;;;5009275;28;20072;-62
2022/10/06 04:56:38;;;;;;;3.65;2.47;;;23.10;46.40;;;;;;5007666;28;20049;-62
2022/10/06 04:59:05;;;;;;;2.60;2.40;;;23.10;46.40;;;;;;5010204;28;20042;-62
2022/10/06 05:01:35;;;;;;;2.67;2.30;;;23.10;46.40;;;;;;5000692;28;20057;-62
2022/10/06 05:04:03;;;;;;;3.90;1.90;;;23.10;46.40;;;;;;5000697;28;20034;-62
2022/10/06 05:06:32;;;;;;;3.03;2.35;;;23.10;46.40;;;;;;5004169;28;20299;-62
2022/10/06 05:09:02;;;;;;;2.72;2.50;;;23.10;46.30;;;;;;5005611;28;20050;-62
2022/10/06 05:11:30;;;;;;;2.42;2.22;;;23.10;46.30;;;;;;5010675;28;20046;-62
2022/10/06 05:13:58;;;;;;;3.10;2.08;;;23.10;46.20;;;;;;5008561;28;20046;-62
2022/10/06 05:16:28;;;;;;;3.13;2.42;;;23.10;46.20;;;;;;5007951;28;20054;-62
2022/10/06 05:18:56;;;;;;;2.75;2.47;;;23.10;46.10;;;;;;5005076;28;20465;-59
2022/10/06 05:21:26;;;;;;;3.42;2.40;;;23.10;46.10;;;;;;5013275;28;20387;-59
2022/10/06 05:23:54;;;;;;;2.53;2.15;;;23.00;46.10;;;;;;5005174;28;20061;-62
2022/10/06 05:26:23;;;;;;;3.22;2.38;;;23.10;46.10;;;;;;5006579;28;20537;-64
2022/10/06 05:28:50;;;;;;;2.60;2.40;;;23.10;45.90;;;;;;5003644;28;20045;-64
2022/10/06 05:31:30;;;;;;;3.22;2.92;;;23.10;45.80;;;;;;5008903;28;20044;-64
2022/10/06 05:33:58;;;;;;;3.20;2.58;;;23.10;45.80;;;;;;5001703;28;20371;-68
2022/10/06 05:36:29;;;;;;;7.55;2.58;;;23.10;45.90;;;;;;4988151;28;20049;-63
2022/10/06 05:38:57;;;;;;;3.00;2.53;;;23.10;45.90;;;;;;4998861;28;20050;-65
2022/10/06 05:41:27;;;;;;;3.22;2.45;;;23.10;45.90;;;;;;5000382;28;20053;-65
2022/10/06 05:43:54;;;;;;;;;;;23.10;46.00;;;;;;4995593;28;20056;-62
2022/10/06 05:46:24;;;;;;;3.17;2.50;;;23.10;45.90;;;;;;5005720;28;19927;-62
2022/10/06 05:48:56;;;;;;;4.15;2.40;;;23.10;45.70;;;;;;5000101;28;20134;-64
2022/10/06 05:51:26;;;;;;;3.80;2.90;;;23.20;45.60;;;;;;5002104;28;20053;-62
2022/10/06 05:53:58;;;;;;;4.45;2.67;;;23.20;45.50;;;;;;5002703;28;20046;-62
2022/10/06 05:56:27;;;;;;;2.75;2.50;;;23.20;45.30;;;;;;5005448;28;20396;-62
2022/10/06 05:58:56;;;;;;;4.90;2.90;;;23.20;45.30;;;;;;4987352;28;20161;-62
2022/10/06 06:01:35;;;;;;;6.18;3.25;;;23.20;45.50;;;;;;5011827;28;20132;-61
2022/10/06 06:04:05;;;;;;;2.97;2.67;;;23.20;45.80;;;;;;5005122;28;20077;-61
2022/10/06 06:06:39;;;;;;;7.22;3.40;;;23.30;46.00;;;;;;5004633;28;20050;-61
2022/10/06 06:09:12;;;;;;;8.43;3.83;;;23.30;46.10;;;;;;5000515;28;20045;-60
2022/10/06 06:11:41;;;;;;;3.58;2.95;;;23.30;46.30;;;;;;5003546;28;20497;-60
2022/10/06 06:14:14;;;;;;;4.65;3.03;;;23.40;46.60;;;;;;5004035;28;20581;-61
2022/10/06 06:16:42;;;;;;;4.03;3.08;;;23.40;46.60;;;;;;5005403;28;20065;-62
2022/10/06 06:19:12;;;;;;;6.75;3.60;;;23.40;46.50;;;;;;5007338;28;20096;-61
2022/10/06 06:21:39;;;;;;;15.18;3.95;;;23.40;46.50;;;;;;5005122;28;20042;-62
2022/10/06 06:24:07;;;;;;;4.65;3.00;;;23.50;46.40;;;;;;5004812;28;20054;-62
2022/10/06 06:26:36;;;;;;;4.20;2.85;;;23.50;46.50;;;;;;5003900;28;20058;-62
2022/10/06 06:29:05;;;;;;;3.50;3.10;;;23.50;46.40;;;;;;5004487;28;20045;-62
2022/10/06 06:31:38;;;;;;;5.22;3.38;;;23.60;46.40;;;;;;5007582;28;20671;-62
2022/10/06 06:34:06;;;;;;;7.72;3.50;;;23.60;46.30;;;;;;5004480;28;20049;-63
2022/10/06 06:36:39;;;;;;;8.23;3.30;;;23.60;46.20;;;;;;5006360;28;20056;-63
2022/10/06 06:39:09;;;;;;;5.57;3.05;;;23.60;46.10;;;;;;5004654;28;20104;-64
2022/10/06 06:41:39;;;;;;;5.03;3.42;;;23.60;46.00;;;;;;5008319;28;20049;-63
2022/10/06 06:44:09;;;;;;;7.97;3.97;;;23.70;46.00;;;;;;5006306;28;20060;-63
2022/10/06 06:46:39;;;;;;;6.03;3.58;;;23.70;46.00;;;;;;5002365;28;20061;-63
2022/10/06 06:49:06;;;;;;;5.90;3.20;;;23.70;45.90;;;;;;5003960;28;20137;-62
2022/10/06 06:51:36;;;;;;;17.08;3.60;;;23.70;45.80;;;;;;5005385;28;20046;-61
2022/10/06 06:54:04;;;;;;;7.67;3.77;;;23.80;45.80;;;;;;5001835;28;20137;-63
2022/10/06 06:56:33;;;;;;;7.57;3.92;;;23.80;45.80;;;;;;5003969;28;20311;-65
2022/10/06 06:59:10;;;;;;;5.28;3.45;;;23.90;45.80;;;;;;5004140;28;20081;-65
2022/10/06 07:01:44;;;;;;;7.32;4.22;;;23.90;45.70;;;;;;5003559;28;20046;-61
2022/10/06 07:04:14;;;;;;;5.45;3.72;;;24.00;45.70;;;;;;5001297;28;20395;-63
2022/10/06 07:06:46;;;;;;;6.70;3.47;;;24.10;45.70;;;;;;5003630;28;20398;-63
2022/10/06 07:09:13;;;;;;;4.38;3.47;;;24.10;45.70;;;;;;5001691;28;20506;-62
2022/10/06 07:11:40;;;;;;;5.45;3.72;;;24.10;45.70;;;;;;4999112;28;20060;-62
2022/10/06 07:14:11;;;;;;;8.52;4.03;;;24.20;45.70;;;;;;5002920;28;20133;-61
2022/10/06 07:25:10;;;;;;;9.07;4.28;;;24.30;45.50;;;;;;5005378;28;20049;-62
2022/10/06 07:27:51;;;;;;;7.57;3.95;;;24.40;45.40;;;;;;5002120;28;20049;-62
2022/10/06 07:30:23;;;;;;;4.07;3.60;;;24.40;45.30;;;;;;5004754;28;20037;-60
2022/10/06 07:32:51;;;;;;;6.53;3.97;;;24.50;45.30;;;;;;4999461;28;20060;-61
2022/10/06 07:35:21;;;;;;;4.80;3.72;;;24.50;45.30;;;;;;4997638;28;20121;-61
2022/10/06 07:37:49;;;;;;;5.00;3.73;;;24.50;45.30;;;;;;4999903;28;20054;-61
2022/10/06 07:40:17;;;;;;;5.32;3.10;;;24.60;45.30;;;;;;4998918;28;20311;-61
2022/10/06 07:42:47;;;;;;;4.78;3.30;;;24.60;45.20;;;;;;5002566;28;20065;-61
2022/10/06 07:45:37;;;;;;;;;;;24.60;45.10;;;;;;4998570;28;20060;-60
2022/10/06 07:48:14;;;;;;;4.68;3.55;;;24.70;45.10;;;;;;4999269;28;19929;-61
2022/10/06 07:50:43;;;;;;;7.32;3.88;;;24.70;45.10;;;;;;5008242;28;20053;-60
2022/10/06 07:53:11;;;;;;;6.32;3.67;;;24.70;45.10;;;;;;5005952;28;20474;-60
2022/10/06 07:55:40;;;;;;;4.72;3.05;;;24.70;45.20;;;;;;5011329;28;20852;-61
2022/10/06 07:58:13;;;;;;;5.57;3.20;;;24.80;45.20;;;;;;5008311;28;20067;-61
2022/10/06 08:00:41;;;;;;;5.03;3.50;;;24.80;45.10;;;;;;5004219;28;20049;-61
2022/10/06 08:03:10;;;;;;;3.47;3.10;;;24.80;45.10;;;;;;5006119;28;20042;-60
2022/10/06 08:05:40;;;;;;;4.05;3.28;;;24.80;45.10;;;;;;5008216;28;20065;-59
2022/10/06 08:08:07;;;;;;;5.50;3.72;;;24.90;45.10;;;;;;5009489;28;20046;-60
2022/10/06 08:10:35;;;;;;;6.55;3.80;;;24.90;45.00;;;;;;5012014;28;20038;-62
2022/10/06 08:13:06;;;;;;;3.65;3.35;;;24.90;44.90;;;;;;5007024;28;20046;-60
2022/10/06 08:15:34;;;;;;;5.20;3.45;;;25.00;45.00;;;;;;5002315;28;20057;-61
2022/10/06 08:18:02;;;;;;;6.38;3.80;;;25.00;44.90;;;;;;5003090;28;20217;-60
2022/10/06 08:20:47;;;;;;;4.88;3.50;;;25.00;44.90;;;;;;5002731;28;20065;-60
2022/10/06 08:23:15;;;;;;;5.30;3.65;;;25.10;44.90;;;;;;5004309;28;20422;-60
2022/10/06 08:25:53;;;;;;;4.45;3.25;;;25.10;44.90;;;;;;5008965;28;20060;-60
2022/10/06 08:28:21;;;;;;;7.53;3.78;;;25.10;44.80;;;;;;5004936;28;20058;-60
2022/10/06 08:30:51;;;;;;;4.97;3.30;;;25.10;44.80;;;;;;5001614;28;20054;-61
2022/10/06 08:33:19;;;;;;;7.18;3.20;;;25.10;44.70;;;;;;5005056;28;20041;-61
2022/10/06 08:35:47;;;;;;;6.10;3.83;;;25.10;44.60;;;;;;5006643;28;20145;-62
2022/10/06 08:38:14;;;;;;;5.90;3.40;;;25.10;44.60;;;;;;5007022;28;20067;-60
2022/10/06 08:40:43;;;;;;;5.70;3.50;;;25.20;44.60;;;;;;5006081;28;20058;-61
2022/10/06 08:43:18;;;;;;;4.53;3.53;;;25.20;44.70;;;;;;5004177;28;20061;-61
2022/10/06 08:45:46;;;;;;;3.60;3.08;;;25.20;44.70;;;;;;5002328;28;20510;-60
2022/10/06 08:48:18;;;;;;;5.60;3.83;;;25.20;44.60;;;;;;4996593;28;20046;-59
2022/10/06 08:51:04;;;;;;;4.43;3.50;;;25.30;44.60;;;;;;5004285;28;20158;-60
2022/10/06 08:53:45;;;;;;;3.55;3.20;;;25.30;44.50;;;;;;5003516;28;20060;-60
2022/10/06 08:56:23;;;;;;;4.68;3.03;;;25.30;44.50;;;;;;5002231;28;20046;-59
2022/10/06 08:59:02;;;;;;;5.20;3.60;;;25.30;44.30;;;;;;5001124;28;20042;-59
2022/10/06 09:01:46;;;;;;;5.27;3.20;;;25.40;44.40;;;;;;5003942;28;20498;-60
2022/10/06 09:04:27;;;;;;;6.50;3.40;;;25.40;44.40;;;;;;5002450;28;20299;-59
2022/10/06 09:07:07;;;;;;;4.53;3.70;;;25.40;43.60;;;;;;5003342;28;20046;-60
2022/10/06 09:10:06;;;;;;;4.55;3.35;;;25.40;41.50;;;;;;5007930;28;20104;-60
2022/10/06 09:12:50;;;;;;;5.03;2.90;;;25.30;42.40;;;;;;5004989;28;20053;-60
2022/10/06 09:15:41;;;;;;;4.22;3.20;;;25.30;43.00;;;;;;5002272;28;20112;-60
2022/10/06 09:18:30;;;;;;;5.15;3.25;;;25.30;43.20;;;;;;5001665;28;20046;-60
2022/10/06 09:21:23;;;;;;;6.97;3.13;;;25.30;43.40;;;;;;4998920;28;20062;-60
2022/10/06 09:24:02;;;;;;;6.80;3.60;;;25.30;44.10;;;;;;5001675;28;20144;-61
2022/10/06 09:26:31;;;;;;;4.38;2.80;;;25.40;43.60;;;;;;5000153;28;20057;-60
2022/10/06 09:28:59;;;;;;;3.85;3.40;;;25.40;43.70;;;;;;5003598;28;20057;-59
2022/10/06 09:31:29;;;;;;;4.50;3.10;;;25.40;43.70;;;;;;4999463;28;20057;-58
2022/10/06 09:34:25;;;;;;;6.43;3.40;;;25.40;43.70;;;;;;5000806;28;20042;-60
2022/10/06 09:36:58;;;;;;;4.43;3.10;;;25.40;43.70;;;;;;5000393;28;20449;-59
2022/10/06 09:39:37;;;;;;;7.00;3.35;;;25.50;43.70;;;;;;4998122;28;20517;-60
2022/10/06 09:42:24;;;;;;;8.48;3.47;;;25.50;43.80;;;;;;5002796;28;20494;-60
2022/10/06 09:45:24;;;;;;;4.50;3.05;;;25.50;43.80;;;;;;5001095;28;20058;-59
2022/10/06 09:47:51;;;;;;;3.65;3.22;;;25.60;43.90;;;;;;5009697;28;20050;-59
2022/10/06 09:50:25;;;;;;;3.53;3.22;;;25.60;43.90;;;;;;5002408;28;20037;-60
2022/10/06 09:53:04;;;;;;;3.70;2.80;;;25.60;43.90;;;;;;5013086;28;20072;-60
2022/10/06 09:55:43;;;;;;;4.63;2.83;;;25.70;43.90;;;;;;5010711;28;20405;-61
2022/10/06 09:58:19;;;;;;;3.92;2.95;;;25.70;43.80;;;;;;5005666;28;20045;-62
2022/10/06 10:01:01;;;;;;;4.35;3.05;;;25.70;43.80;;;;;;4997663;28;20045;-61
2022/10/06 10:03:51;;;;;;;4.65;2.67;;;25.70;43.70;;;;;;5005616;28;20053;-62
2022/10/06 10:06:40;;;;;;;3.83;2.97;;;25.80;43.70;;;;;;5010698;28;20049;-61
2022/10/06 10:09:24;;;;;;;5.72;3.05;;;25.80;43.60;;;;;;5013110;28;20084;-62
2022/10/06 10:12:23;;;;;;;3.17;2.47;;;25.80;43.50;;;;;;5011897;28;20100;-61
2022/10/06 10:14:55;;;;;;;4.32;2.85;;;25.80;43.40;;;;;;5009456;28;20077;-61
2022/10/06 10:17:36;;;;;;;2.80;2.60;;;25.80;43.40;;;;;;5001225;28;20042;-61
2022/10/06 10:20:21;;;;;;;3.80;3.00;;;25.80;43.30;;;;;;5002411;28;20042;-61
2022/10/06 10:22:50;;;;;;;7.47;3.05;;;25.90;43.30;;;;;;4998384;28;20526;-61
2022/10/06 10:25:43;;;;;;;5.60;3.17;;;25.90;43.20;;;;;;5000322;28;20062;-61
2022/10/06 10:28:40;;;;;;;3.25;2.58;;;25.90;43.30;;;;;;5007604;28;20060;-62
2022/10/06 10:31:29;;;;;;;4.03;2.95;;;25.90;43.40;;;;;;5006712;28;20101;-61
2022/10/06 10:34:23;;;;;;;4.05;2.90;;;25.90;43.30;;;;;;5002488;28;20046;-61
2022/10/06 10:36:58;;;;;;;3.22;2.88;;;25.90;43.30;;;;;;5007485;28;20472;-61
2022/10/06 10:39:39;;;;;;;4.75;2.97;;;25.90;43.30;;;;;;5004851;28;20057;-61
2022/10/06 10:42:19;;;;;;;3.30;2.78;;;25.80;43.30;;;;;;5007094;28;20486;-60
2022/10/06 10:44:55;;;;;;;2.83;2.63;;;25.90;43.40;;;;;;5006402;28;20053;-61
2022/10/06 10:47:35;;;;;;;7.07;3.63;;;25.90;43.50;;;;;;5005181;28;20140;-60
2022/10/06 10:50:18;;;;;;;4.57;2.70;;;25.90;43.40;;;;;;5003798;28;20042;-60
2022/10/06 10:52:49;;;;;;;4.75;3.15;;;25.90;43.40;;;;;;5001071;28;20311;-61
2022/10/06 10:55:35;;;;;;;4.22;2.42;;;26.00;43.50;;;;;;5004076;28;20049;-61
2022/10/06 10:58:16;;;;;;;3.90;2.70;;;26.00;43.50;;;;;;5006626;28;20053;-61
2022/10/06 11:00:48;;;;;;;3.47;2.35;;;26.00;43.50;;;;;;5002247;28;20056;-59
2022/10/06 11:03:16;;;;;;;3.55;2.97;;;26.00;43.60;;;;;;5001953;28;20068;-59
2022/10/06 11:06:13;;;;;;;6.50;2.70;;;26.00;43.50;;;;;;5004618;28;20052;-61
2022/10/06 11:09:07;;;;;;;2.88;2.65;;;26.00;43.50;;;;;;5006312;28;20414;-60
2022/10/06 11:12:07;;;;;;;3.15;2.85;;;26.00;43.60;;;;;;5007365;28;20046;-61
2022/10/06 11:14:52;;;;;;;3.63;2.60;;;26.00;43.60;;;;;;5002592;28;20049;-59
2022/10/06 11:17:43;;;;;;;4.03;2.60;;;26.10;43.50;;;;;;5002357;28;20050;-58
2022/10/06 11:20:36;;;;;;;5.40;3.30;;;26.10;43.60;;;;;;5001467;28;20046;-60
2022/10/06 11:23:30;;;;;;;3.13;2.60;;;26.10;43.70;;;;;;5004059;28;20050;-60
2022/10/06 11:26:12;;;;;;;3.53;2.47;;;26.10;43.70;;;;;;5004725;28;20254;-59
2022/10/06 11:28:54;;;;;;;4.43;2.70;;;26.10;43.90;;;;;;4997606;28;21661;-62
2022/10/06 11:31:37;;;;;;;3.17;2.88;;;26.20;43.90;;;;;;5006042;28;20049;-59
2022/10/06 11:34:05;;;;;;;4.57;3.03;;;26.20;43.90;;;;;;5003823;28;20090;-60
2022/10/06 11:36:45;;;;;;;2.95;2.60;;;26.20;43.90;;;;;;5011562;28;20375;-62
2022/10/06 11:39:21;;;;;;;;;;;26.20;43.70;;;;;;5006037;28;20038;-61
2022/10/06 11:42:11;;;;;;;4.03;2.60;;;26.20;43.70;;;;;;5001561;28;19929;-60
2022/10/06 11:44:47;;;;;;;7.93;2.70;;;26.20;43.70;;;;;;5003280;28;20054;-61
2022/10/06 11:47:19;;;;;;;2.90;2.53;;;26.20;43.70;;;;;;5005109;28;20049;-60
2022/10/06 11:50:00;;;;;;;4.05;2.38;;;26.20;43.70;;;;;;5005114;28;20493;-61
2022/10/06 11:52:35;;;;;;;3.67;2.70;;;26.30;43.80;;;;;;5006655;28;20414;-60
2022/10/06 11:55:16;;;;;;;6.47;2.90;;;26.20;43.70;;;;;;5002587;28;20477;-60
2022/10/06 11:58:05;;;;;;;4.03;2.78;;;26.30;43.80;;;;;;5001612;28;20062;-60
2022/10/06 12:00:53;;;;;;;5.10;2.88;;;26.30;43.60;;;;;;5000319;28;20045;-61
2022/10/06 12:03:44;;;;;;;5.10;2.95;;;26.30;43.60;;;;;;5011982;28;20049;-62
2022/10/06 12:06:51;;;;;;;4.00;2.08;;;26.30;43.60;;;;;;5009212;28;20050;-60
2022/10/06 12:09:39;;;;;;;4.30;2.40;;;26.30;43.60;;;;;;5004248;28;20049;-62
2022/10/06 12:12:39;;;;;;;2.25;2.03;;;26.30;43.40;;;;;;5005597;28;20046;-61
2022/10/06 12:15:17;;;;;;;3.67;2.33;;;26.40;43.50;;;;;;5004831;28;20051;-62
2022/10/06 12:18:20;;;;;;;4.05;2.75;;;26.40;43.50;;;;;;5005410;28;20050;-62
2022/10/06 12:21:12;;;;;;;4.47;2.70;;;26.40;43.60;;;;;;5013737;28;20042;-61
2022/10/06 12:23:54;;;;;;;2.65;2.45;;;26.40;43.60;;;;;;5007390;28;20517;-62
2022/10/06 12:26:53;;;;;;;4.47;2.75;;;26.50;43.70;;;;;;5004746;28;20065;-60
2022/10/06 12:30:01;;;;;;;5.68;2.17;;;26.50;43.80;;;;;;5003228;28;20060;-61
2022/10/06 12:32:47;;;;;;;4.80;2.22;;;26.50;43.70;;;;;;4997330;28;20058;-60
2022/10/06 12:35:34;;;;;;;3.55;2.40;;;26.60;43.20;;;;;;4998621;28;20260;-60
2022/10/06 12:38:04;;;;;;;3.22;2.58;;;26.50;43.00;;;;;;4996236;28;20042;-59
2022/10/06 12:40:54;;;;;;;4.45;2.58;;;26.50;42.90;;;;;;5005477;28;20045;-61
2022/10/06 12:43:27;;;;;;;5.22;2.90;;;26.50;43.20;;;;;;5004314;28;20466;-60
2022/10/06 12:46:15;;;;;;;3.63;2.42;;;26.50;43.20;;;;;;5001968;28;20061;-62
2022/10/06 12:49:12;;;;;;;5.72;2.75;;;26.50;43.20;;;;;;5002671;28;20124;-61
2022/10/06 12:51:43;;;;;;;2.78;2.15;;;26.50;43.40;;;;;;5003324;28;20038;-62
2022/10/06 12:54:33;;;;;;;2.30;2.10;;;26.50;43.40;;;;;;5003961;28;20411;-62
2022/10/06 12:57:08;;;;;;;3.25;2.20;;;26.60;43.40;;;;;;5004838;28;20530;-61
2022/10/06 12:59:37;;;;;;;4.10;2.72;;;26.60;43.40;;;;;;5004401;28;20379;-62
2022/10/06 13:02:22;;;;;;;4.15;2.17;;;26.60;43.40;;;;;;5004988;28;20045;-62
2022/10/06 13:05:08;;;;;;;2.63;2.28;;;26.60;43.30;;;;;;4996135;28;20038;-61
2022/10/06 13:07:58;;;;;;;2.53;2.20;;;26.60;43.30;;;;;;5009069;28;20498;-61
2022/10/06 13:10:29;;;;;;;3.33;2.25;;;26.60;43.50;;;;;;5004800;28;21630;-61
2022/10/06 13:12:58;;;;;;;3.05;2.38;;;26.60;43.50;;;;;;5004329;28;20092;-61
2022/10/06 13:15:40;;;;;;;2.42;2.20;;;26.60;43.50;;;;;;5004657;28;20046;-60
2022/10/06 13:18:20;;;;;;;3.05;2.10;;;26.60;43.50;;;;;;5005358;28;20041;-61
2022/10/06 13:20:53;;;;;;;4.60;2.80;;;26.60;43.50;;;;;;5006178;28;20094;-63
2022/10/06 13:23:30;;;;;;;2.47;2.28;;;26.60;43.50;;;;;;5005471;28;20057;-61
2022/10/06 13:26:03;;;;;;;3.90;2.53;;;26.60;43.50;;;;;;4999990;28;20052;-62
2022/10/06 13:28:51;;;;;;;2.45;2.13;;;26.70;43.60;;;;;;5003934;28;20057;-63
2022/10/06 13:31:27;;;;;;;3.10;2.30;;;26.70;43.60;;;;;;5003548;28;20374;-61